Time;durP1;ratioP1;P1;durP2;ratioP2;P2;SDS_P1;SDS_P2;PMS_P1;PMS_P2;Temp;Humidity;BMP_temperature;BMP_pressure;BME280_temperature;BME280_humidity;BME280_pressure;Samples;Min_cycle;Max_cycle;Signal;HPM_P1;HPM_P2
2022/09/11 00:01:02;;;;;;;3.20;2.50;;;14.80;99.90;;;;;;5049076;28;20492;-64
2022/09/11 00:03:30;;;;;;;2.10;1.90;;;14.80;99.90;;;;;;5048631;28;20580;-64
2022/09/11 00:06:01;;;;;;;2.43;2.23;;;14.80;99.90;;;;;;5048950;28;20452;-65
2022/09/11 00:08:30;;;;;;;3.90;2.60;;;14.90;99.90;;;;;;5048983;28;20455;-64
2022/09/11 00:11:04;;;;;;;2.83;1.83;;;14.90;99.90;;;;;;5049325;28;20864;-64
2022/09/11 00:13:31;;;;;;;3.80;2.33;;;14.90;99.90;;;;;;5048489;28;20456;-64
2022/09/11 00:15:57;;;;;;;2.50;2.30;;;14.90;99.90;;;;;;5049200;28;20471;-64
2022/09/11 00:18:28;;;;;;;2.50;1.97;;;14.90;99.90;;;;;;5048410;28;20452;-65
2022/09/11 00:20:56;;;;;;;3.40;1.97;;;14.90;99.90;;;;;;5048687;28;20496;-65
2022/09/11 00:23:25;;;;;;;2.90;2.57;;;14.80;99.90;;;;;;5047162;28;20531;-64
2022/09/11 00:25:52;;;;;;;3.33;2.40;;;14.80;99.90;;;;;;5048881;28;20460;-63
2022/09/11 00:28:21;;;;;;;3.93;2.20;;;14.90;99.90;;;;;;5048023;28;20452;-64
2022/09/11 00:30:57;;;;;;;2.57;2.33;;;14.90;99.90;;;;;;5048762;28;20452;-65
2022/09/11 00:33:26;;;;;;;3.43;2.30;;;14.90;99.90;;;;;;5046764;28;20467;-65
2022/09/11 00:35:57;;;;;;;3.10;2.20;;;14.80;99.90;;;;;;5048399;28;20448;-64
2022/09/11 00:38:24;;;;;;;2.80;2.17;;;14.80;99.90;;;;;;5042463;28;20514;-64
2022/09/11 00:40:51;;;;;;;2.87;2.13;;;14.80;99.90;;;;;;5048795;28;20444;-65
2022/09/11 00:43:19;;;;;;;6.93;3.27;;;14.70;99.90;;;;;;5050408;28;21158;-63
2022/09/11 00:45:48;;;;;;;2.87;2.63;;;14.70;99.90;;;;;;5050491;28;20832;-65
2022/09/11 00:48:21;;;;;;;3.20;2.50;;;14.80;99.90;;;;;;5050158;28;20471;-64
2022/09/11 00:50:51;;;;;;;3.20;2.60;;;14.80;99.90;;;;;;5050513;28;20500;-62
2022/09/11 00:53:20;;;;;;;3.37;2.30;;;14.80;99.90;;;;;;5050649;28;20451;-65
2022/09/11 00:55:51;;;;;;;2.97;2.67;;;14.80;99.90;;;;;;5051059;28;20983;-64
2022/09/11 00:58:20;;;;;;;3.60;2.60;;;14.80;99.90;;;;;;5050740;28;20502;-61
2022/09/11 01:00:48;;;;;;;4.33;2.87;;;14.80;99.90;;;;;;5050743;28;20474;-65
2022/09/11 01:03:15;;;;;;;4.77;2.50;;;14.90;99.90;;;;;;5050696;28;20527;-64
2022/09/11 01:05:43;;;;;;;3.50;3.20;;;14.90;99.90;;;;;;5051496;28;20470;-66
2022/09/11 01:08:11;;;;;;;2.80;2.57;;;14.90;99.90;;;;;;5051241;28;20444;-66
2022/09/11 01:10:47;;;;;;;3.60;2.40;;;14.90;99.90;;;;;;5051061;28;20448;-64
2022/09/11 01:13:23;;;;;;;3.13;2.50;;;14.90;99.90;;;;;;5050656;28;20452;-64
2022/09/11 01:16:02;;;;;;;3.30;2.00;;;14.90;99.90;;;;;;5051513;28;20463;-63
2022/09/11 01:18:34;;;;;;;2.40;2.20;;;14.90;99.90;;;;;;5051479;28;20498;-65
2022/09/11 01:21:20;;;;;;;3.40;2.60;;;14.90;99.90;;;;;;5050968;28;20815;-64
2022/09/11 01:24:19;;;;;;;2.90;2.43;;;14.90;99.90;;;;;;5051089;28;20454;-65
2022/09/11 01:27:13;;;;;;;4.37;2.33;;;14.90;99.90;;;;;;5050820;28;20454;-67
2022/09/11 01:29:45;;;;;;;3.30;2.60;;;14.90;99.90;;;;;;5050978;28;20436;-66
2022/09/11 01:32:19;;;;;;;2.30;2.10;;;14.90;99.90;;;;;;5050404;28;20479;-65
2022/09/11 01:34:52;;;;;;;2.70;2.50;;;14.90;99.90;;;;;;5051162;28;20455;-65
2022/09/11 01:37:27;;;;;;;3.10;2.13;;;14.90;99.90;;;;;;5050335;28;20444;-64
2022/09/11 01:40:03;;;;;;;3.60;2.30;;;14.90;99.90;;;;;;5050423;28;20888;-65
2022/09/11 01:42:33;;;;;;;4.10;3.00;;;14.80;99.90;;;;;;5050177;28;20586;-65
2022/09/11 01:45:04;;;;;;;3.80;2.70;;;14.80;99.90;;;;;;5051032;28;20506;-65
2022/09/11 01:47:34;;;;;;;3.20;2.13;;;14.80;99.90;;;;;;5050740;28;20853;-65
2022/09/11 01:50:05;;;;;;;2.40;2.20;;;14.80;99.90;;;;;;5050359;28;20451;-66
2022/09/11 01:52:36;;;;;;;2.53;2.33;;;14.80;99.90;;;;;;5050315;28;20468;-64
2022/09/11 01:55:11;;;;;;;2.90;2.60;;;14.80;99.90;;;;;;5050790;28;20447;-65
2022/09/11 01:57:43;;;;;;;3.90;3.60;;;14.80;99.90;;;;;;5050742;28;20443;-65
2022/09/11 02:00:13;;;;;;;3.17;2.70;;;14.80;99.90;;;;;;5050791;28;20440;-65
2022/09/11 02:02:45;;;;;;;6.07;3.10;;;14.80;99.90;;;;;;5050161;28;20986;-65
2022/09/11 02:05:16;;;;;;;5.43;2.60;;;14.90;99.90;;;;;;5050194;28;21132;-64
2022/09/11 02:07:46;;;;;;;3.60;2.90;;;14.90;99.90;;;;;;5050879;28;21136;-65
2022/09/11 02:10:17;;;;;;;5.33;2.77;;;14.90;99.90;;;;;;5052038;28;20448;-65
2022/09/11 02:12:51;;;;;;;2.83;2.47;;;15.00;99.90;;;;;;5053654;28;20462;-65
2022/09/11 02:15:20;;;;;;;5.37;2.80;;;15.00;99.90;;;;;;5060157;28;20814;-64
2022/09/11 02:17:53;;;;;;;4.77;3.10;;;15.10;99.90;;;;;;5073573;28;20835;-64
2022/09/11 02:20:20;;;;;;;2.67;2.47;;;15.10;99.90;;;;;;5073750;28;20810;-65
2022/09/11 02:22:48;;;;;;;2.90;2.60;;;15.10;99.90;;;;;;5073044;28;20493;-65
2022/09/11 02:25:16;;;;;;;3.83;2.70;;;15.10;99.90;;;;;;5073673;28;20455;-64
2022/09/11 02:27:43;;;;;;;3.87;3.40;;;15.10;99.90;;;;;;5073484;28;20447;-65
2022/09/11 02:30:10;;;;;;;3.43;3.17;;;15.10;99.90;;;;;;5071000;28;21055;-64
2022/09/11 02:32:42;;;;;;;3.70;3.40;;;15.20;99.90;;;;;;5072485;28;20469;-65
2022/09/11 02:35:10;;;;;;;3.60;3.17;;;15.20;99.90;;;;;;5073482;28;20462;-65
2022/09/11 02:37:49;;;;;;;4.53;3.90;;;15.30;99.90;;;;;;5072397;28;20447;-64
2022/09/11 02:40:42;;;;;;;4.53;3.37;;;15.30;99.90;;;;;;5054077;28;20443;-64
2022/09/11 02:43:31;;;;;;;3.40;3.20;;;15.30;99.90;;;;;;5053139;28;20479;-65
2022/09/11 02:46:33;;;;;;;4.10;3.10;;;15.30;99.90;;;;;;5053485;28;20547;-65
2022/09/11 02:49:08;;;;;;;4.10;3.77;;;15.30;99.90;;;;;;5017705;28;20513;-66
2022/09/11 02:51:41;;;;;;;6.80;3.53;;;15.40;99.90;;;;;;5053645;28;20455;-65
2022/09/11 02:54:17;;;;;;;6.30;3.90;;;15.40;99.90;;;;;;5053417;28;20447;-65
2022/09/11 02:56:47;;;;;;;4.60;4.20;;;15.50;99.90;;;;;;5053438;28;20505;-64
2022/09/11 02:59:20;;;;;;;8.07;3.60;;;15.50;99.90;;;;;;5053774;28;20451;-65
2022/09/11 03:01:48;;;;;;;7.13;5.00;;;15.60;99.90;;;;;;5052308;28;20483;-66
2022/09/11 03:04:17;;;;;;;4.60;4.20;;;15.60;99.90;;;;;;5053040;28;20451;-65
2022/09/11 03:06:44;;;;;;;4.67;4.27;;;15.60;99.90;;;;;;5053260;28;20448;-65
2022/09/11 03:09:11;;;;;;;4.30;3.90;;;15.60;99.90;;;;;;5053468;28;20448;-65
2022/09/11 03:11:38;;;;;;;5.07;4.40;;;15.60;99.90;;;;;;5053342;28;20978;-65
2022/09/11 03:14:05;;;;;;;4.70;4.30;;;15.60;99.90;;;;;;5052904;28;20498;-67
2022/09/11 03:16:32;;;;;;;5.60;4.97;;;15.60;99.90;;;;;;5053418;28;20523;-66
2022/09/11 03:18:58;;;;;;;4.93;4.63;;;15.60;99.90;;;;;;5053350;28;20447;-64
2022/09/11 03:21:26;;;;;;;5.17;4.47;;;15.60;99.90;;;;;;5052358;28;20479;-66
2022/09/11 03:23:53;;;;;;;6.00;4.17;;;15.60;99.90;;;;;;5053669;28;20442;-66
2022/09/11 03:26:20;;;;;;;6.50;4.80;;;15.60;99.90;;;;;;5054629;28;20454;-65
2022/09/11 03:28:47;;;;;;;5.53;5.07;;;15.60;99.90;;;;;;5056428;28;20455;-65
2022/09/11 03:31:13;;;;;;;6.40;5.20;;;15.70;99.90;;;;;;5052683;28;20470;-66
2022/09/11 03:33:40;;;;;;;8.00;5.13;;;15.70;99.90;;;;;;5052277;28;20448;-64
2022/09/11 03:36:08;;;;;;;4.93;4.43;;;15.70;99.90;;;;;;5051981;28;20436;-64
2022/09/11 03:38:36;;;;;;;5.63;5.03;;;15.70;99.90;;;;;;5051981;28;20450;-65
2022/09/11 03:41:03;;;;;;;6.97;5.00;;;15.70;99.90;;;;;;5052310;28;20985;-65
2022/09/11 03:43:30;;;;;;;6.00;5.40;;;15.60;99.90;;;;;;5052748;28;20486;-66
2022/09/11 03:45:57;;;;;;;5.83;5.20;;;15.70;99.90;;;;;;5052584;28;20440;-65
2022/09/11 03:48:24;;;;;;;6.40;5.17;;;15.60;99.90;;;;;;5052652;28;20964;-65
2022/09/11 03:50:50;;;;;;;6.70;5.80;;;15.70;99.90;;;;;;5052242;28;20488;-65
2022/09/11 03:53:18;;;;;;;6.27;5.70;;;15.70;99.90;;;;;;5051815;28;20443;-65
2022/09/11 03:55:46;;;;;;;7.40;6.03;;;15.70;99.90;;;;;;5052334;28;20798;-64
2022/09/11 03:58:14;;;;;;;6.17;5.47;;;15.70;99.90;;;;;;5051922;28;20542;-65
2022/09/11 04:00:41;;;;;;;8.00;5.30;;;15.70;99.90;;;;;;5052039;28;20961;-65
2022/09/11 04:03:09;;;;;;;5.80;5.20;;;15.70;99.90;;;;;;5051935;28;20495;-66
2022/09/11 04:05:36;;;;;;;5.80;5.27;;;15.70;99.90;;;;;;5052141;28;20471;-65
2022/09/11 04:08:03;;;;;;;6.53;5.67;;;15.70;99.90;;;;;;5052090;28;20455;-66
2022/09/11 04:10:31;;;;;;;8.10;6.17;;;15.70;99.90;;;;;;5053266;28;20476;-66
2022/09/11 04:13:00;;;;;;;5.83;5.20;;;15.70;99.90;;;;;;5052417;28;20471;-64
2022/09/11 04:15:27;;;;;;;6.17;5.67;;;15.70;99.90;;;;;;5053050;28;20450;-66
2022/09/11 04:17:54;;;;;;;6.57;5.00;;;15.70;99.90;;;;;;5052501;28;20543;-65
2022/09/11 04:20:20;;;;;;;5.93;5.33;;;15.70;99.90;;;;;;5052626;28;20455;-65
2022/09/11 04:22:47;;;;;;;6.90;6.23;;;15.70;99.90;;;;;;5051704;28;21001;-64
2022/09/11 04:25:14;;;;;;;6.03;5.43;;;15.70;99.90;;;;;;5052707;28;20456;-65
2022/09/11 04:27:41;;;;;;;6.13;5.53;;;15.70;99.90;;;;;;5052356;28;20444;-65
2022/09/11 04:30:10;;;;;;;5.97;5.10;;;15.80;99.90;;;;;;5053173;28;20440;-65
2022/09/11 04:32:37;;;;;;;6.40;5.53;;;15.80;99.90;;;;;;5051381;28;20480;-66
2022/09/11 04:35:04;;;;;;;7.17;5.97;;;15.80;99.90;;;;;;5051334;28;20956;-64
2022/09/11 04:37:34;;;;;;;7.90;6.20;;;15.80;99.90;;;;;;5053108;28;20842;-66
2022/09/11 04:40:01;;;;;;;7.47;6.43;;;15.80;99.90;;;;;;5052626;28;20455;-63
2022/09/11 04:42:28;;;;;;;6.70;6.10;;;15.80;99.90;;;;;;5052328;28;20488;-66
2022/09/11 04:44:55;;;;;;;6.57;5.93;;;15.80;99.90;;;;;;5053154;28;20448;-64
2022/09/11 04:47:23;;;;;;;7.00;6.40;;;15.80;99.90;;;;;;5053015;28;20585;-65
2022/09/11 04:49:50;;;;;;;6.93;5.73;;;15.80;99.90;;;;;;5052392;28;20456;-66
2022/09/11 04:52:17;;;;;;;7.80;7.03;;;15.80;99.90;;;;;;5051381;28;20464;-66
2022/09/11 04:54:45;;;;;;;7.37;6.63;;;15.80;99.90;;;;;;5052272;28;20436;-65
2022/09/11 04:57:13;;;;;;;11.03;7.47;;;15.80;99.90;;;;;;5052494;28;20487;-67
2022/09/11 04:59:39;;;;;;;7.07;6.37;;;15.80;99.90;;;;;;5052631;28;20444;-65
2022/09/11 05:02:06;;;;;;;7.17;6.40;;;15.80;99.90;;;;;;5051987;28;20468;-65
2022/09/11 05:04:34;;;;;;;7.43;6.83;;;15.80;99.90;;;;;;5053084;28;20444;-64
2022/09/11 05:07:01;;;;;;;7.60;7.00;;;15.80;99.90;;;;;;5053337;28;20440;-65
2022/09/11 05:09:28;;;;;;;7.93;7.00;;;15.80;99.90;;;;;;5052860;28;21009;-66
2022/09/11 05:11:55;;;;;;;8.57;6.97;;;15.80;99.90;;;;;;5052358;28;21007;-65
2022/09/11 05:14:22;;;;;;;8.13;7.43;;;15.80;99.90;;;;;;5052473;28;20448;-66
2022/09/11 05:16:51;;;;;;;10.37;6.87;;;15.80;99.90;;;;;;5052655;28;20455;-65
2022/09/11 05:19:18;;;;;;;6.93;6.23;;;15.80;99.90;;;;;;5052362;28;20455;-65
2022/09/11 05:21:46;;;;;;;10.73;7.10;;;15.70;99.90;;;;;;5052027;28;20472;-66
2022/09/11 05:24:13;;;;;;;8.03;6.73;;;15.70;99.90;;;;;;5052879;28;20487;-66
2022/09/11 05:26:40;;;;;;;7.40;6.70;;;15.70;99.90;;;;;;5052552;28;20466;-65
2022/09/11 05:29:10;;;;;;;8.23;7.40;;;15.70;99.90;;;;;;5052368;28;20448;-65
2022/09/11 05:31:37;;;;;;;7.07;6.37;;;15.70;99.90;;;;;;5052533;28;20472;-66
2022/09/11 05:34:04;;;;;;;10.03;7.67;;;15.70;99.90;;;;;;5052605;28;20951;-65
2022/09/11 05:36:32;;;;;;;7.50;6.80;;;15.80;99.90;;;;;;5052069;28;20447;-66
2022/09/11 05:39:00;;;;;;;7.33;6.63;;;15.80;99.90;;;;;;5052999;28;20474;-65
2022/09/11 05:41:27;;;;;;;7.10;6.50;;;15.80;99.90;;;;;;5052266;28;20475;-65
2022/09/11 05:43:54;;;;;;;8.60;7.80;;;15.80;99.90;;;;;;5054076;28;20510;-66
2022/09/11 05:46:21;;;;;;;10.30;6.93;;;15.90;99.90;;;;;;5058611;28;20444;-65
2022/09/11 05:48:48;;;;;;;7.60;6.90;;;15.90;99.90;;;;;;5054204;28;20467;-64
2022/09/11 05:51:18;;;;;;;8.60;6.63;;;15.90;99.90;;;;;;5059049;28;20574;-66
2022/09/11 05:53:45;;;;;;;10.27;7.20;;;16.00;99.90;;;;;;5058224;28;20450;-65
2022/09/11 05:56:16;;;;;;;7.40;6.80;;;16.00;99.90;;;;;;5058503;28;20436;-65
2022/09/11 05:58:43;;;;;;;10.30;6.87;;;16.00;99.90;;;;;;5058862;28;20439;-66
2022/09/11 06:01:12;;;;;;;8.03;7.23;;;16.00;99.90;;;;;;5058369;28;20464;-63
2022/09/11 06:03:39;;;;;;;8.13;6.50;;;16.00;99.90;;;;;;5058023;28;20479;-66
2022/09/11 06:06:08;;;;;;;7.40;6.60;;;16.10;99.90;;;;;;5058566;28;20447;-65
2022/09/11 06:08:36;;;;;;;6.90;6.20;;;16.10;99.90;;;;;;5058545;28;20443;-66
2022/09/11 06:11:05;;;;;;;7.30;6.57;;;16.10;99.90;;;;;;5058480;28;20562;-64
2022/09/11 06:13:35;;;;;;;8.57;7.40;;;16.20;99.90;;;;;;5058608;28;20451;-65
2022/09/11 06:16:02;;;;;;;8.80;6.50;;;16.10;99.90;;;;;;5058808;28;20444;-66
2022/09/11 06:18:29;;;;;;;7.20;6.50;;;16.10;99.90;;;;;;5058948;28;20436;-67
2022/09/11 06:20:57;;;;;;;6.87;6.17;;;16.20;99.90;;;;;;5058841;28;20474;-65
2022/09/11 06:23:24;;;;;;;8.43;7.73;;;16.30;99.90;;;;;;5058272;28;20483;-66
2022/09/11 06:25:53;;;;;;;10.03;9.00;;;16.30;99.90;;;;;;5058588;28;20480;-64
2022/09/11 06:28:21;;;;;;;9.33;7.67;;;16.30;99.90;;;;;;5058893;28;21044;-65
2022/09/11 06:30:50;;;;;;;9.20;8.30;;;16.30;99.90;;;;;;5058452;28;20814;-66
2022/09/11 06:33:19;;;;;;;8.90;8.00;;;16.40;99.90;;;;;;5058354;28;20490;-65
2022/09/11 06:35:56;;;;;;;11.10;7.20;;;16.40;99.90;;;;;;5058359;28;20934;-65
2022/09/11 06:38:23;;;;;;;8.33;7.70;;;16.40;99.90;;;;;;5058601;28;20481;-65
2022/09/11 06:40:50;;;;;;;11.57;8.20;;;16.40;99.90;;;;;;5057980;28;20455;-65
2022/09/11 06:43:17;;;;;;;8.47;7.67;;;16.40;99.90;;;;;;5058207;28;20482;-65
2022/09/11 06:45:45;;;;;;;8.73;7.67;;;16.50;99.90;;;;;;5058965;28;20818;-64
2022/09/11 06:48:13;;;;;;;9.60;8.60;;;16.50;99.90;;;;;;5059264;28;20448;-64
2022/09/11 06:50:40;;;;;;;9.73;8.40;;;16.60;99.90;;;;;;5058884;28;20456;-64
2022/09/11 06:53:07;;;;;;;10.87;7.60;;;16.60;99.90;;;;;;5058183;28;20450;-67
2022/09/11 06:55:34;;;;;;;9.20;8.40;;;16.60;99.90;;;;;;5056749;28;20452;-65
2022/09/11 06:58:02;;;;;;;9.17;8.27;;;16.60;99.90;;;;;;5055523;28;20456;-65
2022/09/11 07:00:30;;;;;;;9.67;8.40;;;16.60;99.90;;;;;;5055067;28;20924;-65
2022/09/11 07:02:57;;;;;;;8.00;7.33;;;16.70;99.90;;;;;;5054651;28;20567;-64
2022/09/11 07:05:26;;;;;;;10.60;8.33;;;16.70;99.90;;;;;;5055234;28;20440;-65
2022/09/11 07:07:52;;;;;;;9.40;8.60;;;16.80;99.90;;;;;;5054567;28;20452;-65
2022/09/11 07:10:19;;;;;;;8.80;7.77;;;16.90;99.90;;;;;;5054966;28;20448;-65
2022/09/11 07:12:46;;;;;;;9.33;8.43;;;16.90;99.90;;;;;;5056127;28;20479;-66
2022/09/11 07:15:13;;;;;;;8.70;7.90;;;17.00;99.90;;;;;;5058387;28;20444;-66
2022/09/11 07:17:40;;;;;;;10.93;8.10;;;17.10;99.90;;;;;;5057894;28;20474;-67
2022/09/11 07:20:08;;;;;;;10.40;7.93;;;17.10;99.90;;;;;;5052612;28;20447;-67
2022/09/11 07:22:36;;;;;;;8.47;7.77;;;17.10;99.90;;;;;;5055514;28;20475;-65
2022/09/11 07:25:03;;;;;;;8.43;7.47;;;17.00;99.90;;;;;;5055679;28;20518;-63
2022/09/11 07:27:32;;;;;;;16.20;8.70;;;17.00;99.90;;;;;;5054032;28;20456;-66
2022/09/11 07:29:59;;;;;;;9.33;8.50;;;17.00;99.90;;;;;;5053495;28;20491;-64
2022/09/11 07:32:26;;;;;;;7.87;7.07;;;17.00;99.90;;;;;;5051681;28;20467;-65
2022/09/11 07:34:52;;;;;;;8.70;7.90;;;17.00;99.90;;;;;;5052019;28;20443;-65
2022/09/11 07:37:19;;;;;;;9.20;8.43;;;16.90;99.90;;;;;;5052177;28;20452;-65
2022/09/11 07:39:47;;;;;;;9.70;8.70;;;16.90;99.90;;;;;;5052166;28;20444;-66
2022/09/11 07:42:14;;;;;;;8.70;7.80;;;17.00;99.90;;;;;;5051734;28;20464;-66
2022/09/11 07:44:41;;;;;;;9.13;8.00;;;17.20;99.90;;;;;;5051894;28;20476;-65
2022/09/11 07:47:08;;;;;;;8.90;8.07;;;17.40;99.90;;;;;;5059368;28;20447;-68
2022/09/11 07:49:34;;;;;;;8.40;7.67;;;17.50;99.90;;;;;;5072993;28;20446;-64
2022/09/11 07:52:02;;;;;;;8.07;7.30;;;17.70;99.90;;;;;;5072625;28;20467;-67
2022/09/11 07:54:29;;;;;;;9.87;9.03;;;17.80;99.90;;;;;;5073557;28;20443;-65
2022/09/11 07:56:58;;;;;;;7.90;7.10;;;17.80;99.90;;;;;;5071136;28;20447;-68
2022/09/11 07:59:24;;;;;;;8.53;7.13;;;17.90;99.90;;;;;;5051354;28;20449;-66
2022/09/11 08:01:51;;;;;;;8.82;8.13;;;18.00;99.90;;;;;;5050889;28;20507;-65
2022/09/11 08:04:18;;;;;;;8.60;7.90;;;18.10;99.90;;;;;;5056637;28;20216;-64
2022/09/11 08:06:45;;;;;;;9.40;8.60;;;18.10;99.90;;;;;;5070458;28;20458;-64
2022/09/11 08:09:15;;;;;;;9.10;8.17;;;18.10;99.90;;;;;;5070554;28;20463;-66
2022/09/11 08:11:47;;;;;;;9.50;8.27;;;18.10;99.90;;;;;;5070736;28;20459;-64
2022/09/11 08:14:16;;;;;;;8.93;8.10;;;18.10;99.90;;;;;;5070867;28;20439;-65
2022/09/11 08:16:43;;;;;;;9.23;8.43;;;18.20;99.90;;;;;;5070720;28;20546;-66
2022/09/11 08:19:16;;;;;;;10.57;7.90;;;18.10;99.90;;;;;;5062637;28;20982;-65
2022/09/11 08:21:43;;;;;;;9.00;8.20;;;18.20;99.90;;;;;;5049863;28;20471;-70
2022/09/11 08:24:12;;;;;;;7.93;7.13;;;18.20;99.90;;;;;;5050869;28;20483;-69
2022/09/11 08:26:38;;;;;;;7.83;7.13;;;18.30;99.90;;;;;;5050648;28;20440;-66
2022/09/11 08:29:05;;;;;;;8.40;7.53;;;18.30;99.90;;;;;;5049709;28;20452;-68
2022/09/11 08:31:34;;;;;;;7.47;6.87;;;18.30;99.90;;;;;;5050670;28;20502;-68
2022/09/11 08:34:01;;;;;;;8.90;8.10;;;18.50;99.90;;;;;;5050174;28;20904;-67
2022/09/11 08:36:28;;;;;;;9.40;8.00;;;18.60;99.90;;;;;;5050242;28;20455;-69
2022/09/11 08:38:55;;;;;;;8.27;6.87;;;18.50;99.90;;;;;;5044014;28;20513;-68
2022/09/11 08:41:33;;;;;;;10.50;7.97;;;18.40;99.90;;;;;;5041815;28;21065;-67
2022/09/11 08:44:05;;;;;;;8.60;7.80;;;18.40;99.90;;;;;;5040714;28;20538;-67
2022/09/11 08:46:36;;;;;;;8.57;7.40;;;18.40;99.90;;;;;;5038975;28;20445;-66
2022/09/11 08:49:10;;;;;;;8.90;7.70;;;18.50;99.90;;;;;;5044613;28;20456;-66
2022/09/11 08:51:38;;;;;;;8.47;7.60;;;18.80;99.90;;;;;;5049277;28;20472;-64
2022/09/11 08:54:06;;;;;;;8.60;7.80;;;19.00;99.90;;;;;;5039574;28;20453;-64
2022/09/11 08:56:35;;;;;;;8.80;7.97;;;19.10;99.90;;;;;;5040718;28;20449;-66
2022/09/11 08:59:26;;;;;;;7.83;7.23;;;19.10;99.90;;;;;;5036944;28;20464;-67
2022/09/11 09:02:07;;;;;;;7.70;6.70;;;19.10;99.90;;;;;;5041245;28;20875;-67
2022/09/11 09:04:59;;;;;;;9.20;6.77;;;19.40;99.90;;;;;;5038636;28;20480;-67
2022/09/11 09:07:34;;;;;;;7.00;6.40;;;20.00;99.90;;;;;;5047858;28;20474;-66
2022/09/11 09:10:08;;;;;;;8.30;7.60;;;20.10;99.90;;;;;;5049823;28;20439;-67
2022/09/11 09:12:45;;;;;;;10.63;8.87;;;19.80;99.90;;;;;;5044438;28;20471;-67
2022/09/11 09:15:23;;;;;;;7.83;7.10;;;19.60;99.90;;;;;;5047233;28;20531;-67
2022/09/11 09:17:58;;;;;;;9.57;8.73;;;19.70;99.90;;;;;;5048434;28;20451;-67
2022/09/11 09:20:30;;;;;;;8.37;6.60;;;20.10;99.90;;;;;;5046617;28;20448;-68
2022/09/11 09:23:01;;;;;;;7.83;7.20;;;20.70;99.90;;;;;;5048477;28;20464;-67
2022/09/11 09:25:30;;;;;;;8.23;5.90;;;21.40;99.90;;;;;;5048648;28;20502;-68
2022/09/11 09:28:03;;;;;;;6.17;5.57;;;21.90;99.90;;;;;;5049619;28;20489;-67
2022/09/11 09:30:37;;;;;;;7.37;6.67;;;21.50;99.90;;;;;;5049793;28;20824;-67
2022/09/11 09:33:19;;;;;;;7.90;7.20;;;21.00;99.90;;;;;;5049433;28;20823;-66
2022/09/11 09:35:47;;;;;;;6.70;6.23;;;20.70;99.90;;;;;;5049511;28;20439;-68
2022/09/11 09:38:14;;;;;;;6.93;6.30;;;20.70;99.90;;;;;;5049585;28;20958;-66
2022/09/11 09:40:48;;;;;;;6.87;6.30;;;20.70;99.90;;;;;;5049876;28;20447;-67
2022/09/11 09:43:27;;;;;;;7.13;6.40;;;20.70;99.90;;;;;;5049299;28;20440;-67
2022/09/11 09:46:14;;;;;;;6.83;6.30;;;20.50;99.90;;;;;;5049624;28;20436;-66
2022/09/11 09:48:42;;;;;;;7.07;6.37;;;20.40;99.90;;;;;;5049313;28;20446;-68
2022/09/11 09:51:13;;;;;;;8.00;7.20;;;20.20;99.90;;;;;;5048276;28;20476;-64
2022/09/11 09:53:42;;;;;;;7.53;6.50;;;20.10;99.90;;;;;;5048841;28;20460;-68
2022/09/11 09:56:12;;;;;;;13.10;9.00;;;20.00;99.90;;;;;;5049208;28;20448;-67
2022/09/11 09:58:48;;;;;;;8.17;7.27;;;20.00;99.90;;;;;;5049383;28;20444;-65
2022/09/11 10:01:46;;;;;;;7.37;6.73;;;20.00;99.90;;;;;;5049179;28;20471;-67
2022/09/11 10:04:17;;;;;;;6.17;5.67;;;20.50;99.90;;;;;;5048291;28;20519;-67
2022/09/11 10:06:45;;;;;;;7.47;6.87;;;21.00;99.90;;;;;;5049268;28;20455;-68
2022/09/11 10:09:21;;;;;;;6.67;6.17;;;21.70;99.90;;;;;;5049045;28;20539;-68
2022/09/11 10:12:00;;;;;;;7.20;6.50;;;22.10;99.90;;;;;;5048711;28;20974;-66
2022/09/11 10:14:29;;;;;;;7.20;6.30;;;22.30;99.90;;;;;;5049334;28;20440;-67
2022/09/11 10:16:56;;;;;;;7.30;6.53;;;22.30;99.90;;;;;;5049268;28;20444;-65
2022/09/11 10:19:42;;;;;;;7.67;6.97;;;22.00;99.90;;;;;;5049160;28;20450;-67
2022/09/11 10:22:26;;;;;;;6.93;6.33;;;21.70;99.90;;;;;;5048845;28;20491;-68
2022/09/11 10:25:00;;;;;;;7.40;6.80;;;21.30;99.90;;;;;;5045357;28;20475;-66
2022/09/11 10:27:28;;;;;;;7.90;7.20;;;20.80;99.90;;;;;;5049203;28;20455;-67
2022/09/11 10:29:56;;;;;;;8.20;7.30;;;20.60;99.90;;;;;;5049063;28;20444;-67
2022/09/11 10:32:23;;;;;;;8.07;6.50;;;20.40;99.90;;;;;;5052258;28;20892;-67
2022/09/11 10:34:52;;;;;;;9.13;8.10;;;20.30;99.90;;;;;;5053219;28;20847;-67
2022/09/11 10:37:24;;;;;;;8.23;7.40;;;20.10;99.90;;;;;;5053252;28;20999;-67
2022/09/11 10:39:52;;;;;;;7.10;6.50;;;20.00;99.90;;;;;;5052822;28;20459;-67
2022/09/11 10:42:24;;;;;;;7.47;6.73;;;20.10;99.90;;;;;;5052139;28;20539;-65
2022/09/11 10:44:53;;;;;;;7.53;6.70;;;20.30;99.90;;;;;;5052516;28;20492;-68
2022/09/11 10:47:24;;;;;;;7.20;6.60;;;20.50;99.90;;;;;;5052751;28;20447;-67
2022/09/11 10:50:19;;;;;;;7.00;6.03;;;20.90;99.90;;;;;;5053077;28;20967;-69
2022/09/11 10:52:51;;;;;;;7.43;6.73;;;21.00;99.90;;;;;;5052095;28;20476;-68
2022/09/11 10:55:19;;;;;;;7.10;6.50;;;21.40;99.90;;;;;;5052273;28;20440;-68
2022/09/11 10:57:50;;;;;;;7.00;6.40;;;22.00;99.90;;;;;;5052252;28;20448;-67
2022/09/11 11:00:20;;;;;;;6.93;6.23;;;22.40;99.90;;;;;;5052346;28;20448;-68
2022/09/11 11:02:50;;;;;;;6.90;6.20;;;23.10;99.90;;;;;;5051998;28;20470;-66
2022/09/11 11:05:24;;;;;;;6.43;5.80;;;23.50;99.90;;;;;;5052107;28;20534;-67
2022/09/11 11:08:13;;;;;;;7.03;6.20;;;23.60;99.90;;;;;;5052418;28;20447;-67
2022/09/11 11:10:52;;;;;;;6.30;5.80;;;23.20;99.90;;;;;;5052101;28;20459;-67
2022/09/11 11:13:36;;;;;;;6.30;5.80;;;23.00;99.90;;;;;;5052134;28;20440;-66
2022/09/11 11:16:12;;;;;;;7.30;6.70;;;22.80;99.90;;;;;;5052376;28;20451;-66
2022/09/11 11:19:03;;;;;;;6.20;5.43;;;23.10;99.90;;;;;;5051954;28;21036;-67
2022/09/11 11:21:47;;;;;;;7.47;6.87;;;23.90;99.90;;;;;;5046946;28;20494;-66
2022/09/11 11:24:41;;;;;;;5.70;5.20;;;24.60;99.90;;;;;;5036101;28;20484;-67
2022/09/11 11:27:38;;;;;;;6.43;5.83;;;25.10;99.90;;;;;;5043958;28;20450;-66
2022/09/11 11:30:16;;;;;;;6.27;5.77;;;25.60;99.90;;;;;;5045445;28;20456;-67
2022/09/11 11:33:03;;;;;;;5.90;5.40;;;25.40;99.90;;;;;;5040794;28;20468;-67
2022/09/11 11:35:34;;;;;;;6.27;5.70;;;25.30;99.90;;;;;;5047016;28;20448;-67
2022/09/11 11:38:09;;;;;;;6.77;5.90;;;24.50;99.90;;;;;;5048951;28;20452;-65
2022/09/11 11:40:41;;;;;;;6.63;6.03;;;23.70;99.90;;;;;;5046783;28;20471;-66
2022/09/11 11:43:11;;;;;;;6.80;6.30;;;22.80;99.90;;;;;;5048314;28;20899;-66
2022/09/11 11:45:44;;;;;;;8.30;6.13;;;22.30;99.90;;;;;;5051075;28;20480;-67
2022/09/11 11:48:15;;;;;;;6.57;6.00;;;21.80;99.90;;;;;;5051130;28;20467;-68
2022/09/11 11:50:46;;;;;;;7.30;6.70;;;21.60;99.90;;;;;;5049922;28;20452;-68
2022/09/11 11:53:20;;;;;;;7.57;5.90;;;21.60;99.90;;;;;;5050821;28;20475;-68
2022/09/11 11:56:02;;;;;;;6.37;5.87;;;22.30;99.90;;;;;;5050325;28;20435;-65
2022/09/11 11:58:41;;;;;;;5.30;4.90;;;23.80;99.90;;;;;;5051209;28;20836;-68
2022/09/11 12:01:17;;;;;;;5.10;4.60;;;24.70;99.90;;;;;;5051160;28;20468;-65
2022/09/11 12:03:50;;;;;;;4.90;4.50;;;24.80;99.90;;;;;;5050796;28;20448;-65
2022/09/11 12:06:17;;;;;;;5.27;4.87;;;25.00;99.90;;;;;;5051346;28;20849;-66
2022/09/11 12:08:46;;;;;;;4.93;4.37;;;24.90;99.90;;;;;;5051602;28;20444;-64
2022/09/11 12:11:16;;;;;;;5.23;4.73;;;24.60;99.70;;;;;;5050682;28;20460;-66
2022/09/11 12:13:46;;;;;;;4.83;4.43;;;24.10;99.70;;;;;;5051281;28;20459;-64
2022/09/11 12:16:18;;;;;;;5.63;5.20;;;23.70;99.80;;;;;;5042728;28;20448;-65
2022/09/11 12:19:04;;;;;;;6.10;5.60;;;23.50;99.90;;;;;;5027014;28;20541;-67
2022/09/11 12:21:40;;;;;;;6.63;5.90;;;24.20;99.90;;;;;;5039477;28;20564;-67
2022/09/11 12:24:16;;;;;;;6.37;5.77;;;25.10;99.90;;;;;;5041340;28;20461;-65
2022/09/11 12:26:43;;;;;;;6.70;6.10;;;26.40;99.40;;;;;;5039968;28;20452;-65
2022/09/11 12:29:50;;;;;;;8.10;7.50;;;26.60;97.10;;;;;;5044564;28;20467;-67
2022/09/11 12:32:41;;;;;;;6.37;5.77;;;27.80;96.90;;;;;;5043549;28;20559;-65
2022/09/11 12:35:33;;;;;;;6.10;5.60;;;27.70;95.20;;;;;;5045807;28;20440;-65
2022/09/11 12:38:04;;;;;;;5.97;5.47;;;26.60;95.90;;;;;;5040322;28;20848;-67
2022/09/11 12:40:37;;;;;;;6.03;5.53;;;25.10;98.00;;;;;;5038789;28;20491;-65
2022/09/11 12:43:27;;;;;;;6.30;5.70;;;24.30;99.70;;;;;;5037608;28;20509;-68
2022/09/11 12:45:55;;;;;;;6.20;5.40;;;23.70;99.90;;;;;;5032800;28;20487;-67
2022/09/11 12:48:25;;;;;;;5.90;5.50;;;23.20;99.90;;;;;;5038352;28;20456;-68
2022/09/11 12:50:55;;;;;;;6.17;5.67;;;22.70;99.90;;;;;;5038383;28;20444;-67
2022/09/11 12:53:25;;;;;;;6.33;5.73;;;22.30;99.90;;;;;;5044694;28;20518;-66
2022/09/11 12:56:00;;;;;;;6.57;5.97;;;22.00;99.90;;;;;;5046586;28;20443;-67
2022/09/11 12:58:34;;;;;;;7.13;6.43;;;21.70;99.90;;;;;;5047018;28;20439;-68
2022/09/11 13:01:06;;;;;;;6.03;5.43;;;21.50;99.90;;;;;;5046493;28;20836;-67
2022/09/11 13:03:33;;;;;;;6.60;6.10;;;21.40;99.90;;;;;;5046345;28;20456;-69
2022/09/11 13:06:03;;;;;;;6.37;5.87;;;21.30;99.90;;;;;;5043746;28;20580;-68